sensor_id;sensor_type;location;lat;lon;timestamp;pressure;altitude;pressure_sealevel;temperature;humidity
32452;BME280;45528;52.102;5.242;2023-05-14T00:03:11;101658.0;;;19.52;56.29
32452;BME280;45528;52.102;5.242;2023-05-14T00:04:47;101658.0;;;19.62;56.17
32452;BME280;45528;52.102;5.242;2023-05-14T00:06:23;101657.0;;;19.61;56.35
32452;BME280;45528;52.102;5.242;2023-05-14T00:09:35;101657.0;;;19.34;56.46
32452;BME280;45528;52.102;5.242;2023-05-14T00:11:13;101655.0;;;19.5;56.37
32452;BME280;45528;52.102;5.242;2023-05-14T00:12:49;101651.0;;;19.5;56.1
32452;BME280;45528;52.102;5.242;2023-05-14T00:14:26;101648.0;;;19.3;56.08
32452;BME280;45528;52.102;5.242;2023-05-14T00:17:39;101646.0;;;19.34;56.19
32452;BME280;45528;52.102;5.242;2023-05-14T00:19:15;101647.0;;;19.5;56.25
32452;BME280;45528;52.102;5.242;2023-05-14T00:20:51;101648.0;;;19.57;55.49
32452;BME280;45528;52.102;5.242;2023-05-14T00:24:04;101650.0;;;19.41;56.12
32452;BME280;45528;52.102;5.242;2023-05-14T00:25:40;101646.0;;;19.43;55.81
32452;BME280;45528;52.102;5.242;2023-05-14T00:27:16;101643.0;;;19.29;56.06
32452;BME280;45528;52.102;5.242;2023-05-14T00:30:29;101639.0;;;19.3;56.41
32452;BME280;45528;52.102;5.242;2023-05-14T00:32:06;101639.0;;;19.38;56.0
32452;BME280;45528;52.102;5.242;2023-05-14T00:33:43;101634.0;;;19.41;56.26
32452;BME280;45528;52.102;5.242;2023-05-14T00:36:56;101632.0;;;19.38;55.8
32452;BME280;45528;52.102;5.242;2023-05-14T00:38:32;101630.0;;;19.22;56.0
32452;BME280;45528;52.102;5.242;2023-05-14T00:40:09;101627.0;;;19.3;55.98
32452;BME280;45528;52.102;5.242;2023-05-14T00:41:45;101625.0;;;19.29;55.96
32452;BME280;45528;52.102;5.242;2023-05-14T00:44:59;101623.0;;;19.43;55.6
32452;BME280;45528;52.102;5.242;2023-05-14T00:46:35;101619.0;;;19.27;56.32
32452;BME280;45528;52.102;5.242;2023-05-14T00:48:11;101619.0;;;19.36;56.13
32452;BME280;45528;52.102;5.242;2023-05-14T00:51:24;101610.0;;;19.29;55.86
32452;BME280;45528;52.102;5.242;2023-05-14T00:53:02;101609.0;;;19.41;54.99
32452;BME280;45528;52.102;5.242;2023-05-14T00:54:38;101608.0;;;19.25;55.81
32452;BME280;45528;52.102;5.242;2023-05-14T00:57:53;101603.0;;;19.25;55.5
32452;BME280;45528;52.102;5.242;2023-05-14T00:59:31;101606.0;;;19.18;55.54
32452;BME280;45528;52.102;5.242;2023-05-14T01:01:08;101606.0;;;19.25;55.22
32452;BME280;45528;52.102;5.242;2023-05-14T01:02:44;101606.0;;;19.23;55.44
32452;BME280;45528;52.102;5.242;2023-05-14T01:06:10;101611.0;;;19.13;55.54
32452;BME280;45528;52.102;5.242;2023-05-14T01:07:54;101607.0;;;19.04;55.65
32452;BME280;45528;52.102;5.242;2023-05-14T01:09:49;101605.0;;;18.98;56.09
32452;BME280;45528;52.102;5.242;2023-05-14T01:11:43;101603.0;;;18.97;55.9
32452;BME280;45528;52.102;5.242;2023-05-14T01:13:27;101605.0;;;18.95;55.9
32452;BME280;45528;52.102;5.242;2023-05-14T01:15:10;101603.0;;;18.93;55.95
32452;BME280;45528;52.102;5.242;2023-05-14T01:18:32;101599.0;;;18.89;56.38
32452;BME280;45528;52.102;5.242;2023-05-14T01:20:09;101598.0;;;18.86;56.46
32452;BME280;45528;52.102;5.242;2023-05-14T01:21:47;101597.0;;;18.72;57.03
32452;BME280;45528;52.102;5.242;2023-05-14T01:24:59;101598.0;;;18.55;56.53
32452;BME280;45528;52.102;5.242;2023-05-14T01:26:36;101603.0;;;18.7;56.71
32452;BME280;45528;52.102;5.242;2023-05-14T01:28:14;101608.0;;;18.64;56.45
32452;BME280;45528;52.102;5.242;2023-05-14T01:29:58;101606.0;;;18.7;56.45
32452;BME280;45528;52.102;5.242;2023-05-14T01:33:18;101611.0;;;18.68;56.78
32452;BME280;45528;52.102;5.242;2023-05-14T01:34:59;101608.0;;;18.59;56.85
32452;BME280;45528;52.102;5.242;2023-05-14T01:36:36;101608.0;;;18.61;56.72
32452;BME280;45528;52.102;5.242;2023-05-14T01:38:16;101609.0;;;18.68;56.33
32452;BME280;45528;52.102;5.242;2023-05-14T01:41:32;101607.0;;;18.68;56.31
32452;BME280;45528;52.102;5.242;2023-05-14T01:43:08;101601.0;;;18.53;57.13
32452;BME280;45528;52.102;5.242;2023-05-14T01:44:45;101599.0;;;18.43;57.69
32452;BME280;45528;52.102;5.242;2023-05-14T01:47:57;101597.0;;;18.34;57.63
32452;BME280;45528;52.102;5.242;2023-05-14T01:49:34;101598.0;;;18.29;57.86
32452;BME280;45528;52.102;5.242;2023-05-14T01:51:11;101595.0;;;18.18;58.13
32452;BME280;45528;52.102;5.242;2023-05-14T01:52:47;101597.0;;;18.22;58.21
32452;BME280;45528;52.102;5.242;2023-05-14T01:55:59;101594.0;;;18.13;58.76
32452;BME280;45528;52.102;5.242;2023-05-14T01:57:35;101590.0;;;18.14;58.43
32452;BME280;45528;52.102;5.242;2023-05-14T01:59:11;101588.0;;;18.14;58.39
32452;BME280;45528;52.102;5.242;2023-05-14T02:02:25;101581.0;;;18.14;58.58
32452;BME280;45528;52.102;5.242;2023-05-14T02:04:01;101580.0;;;18.05;58.73
32452;BME280;45528;52.102;5.242;2023-05-14T02:05:37;101572.0;;;18.05;58.94
32452;BME280;45528;52.102;5.242;2023-05-14T02:08:49;101574.0;;;18.09;58.63
32452;BME280;45528;52.102;5.242;2023-05-14T02:10:25;101573.0;;;18.09;58.54
32452;BME280;45528;52.102;5.242;2023-05-14T02:12:02;101573.0;;;18.11;58.54
32452;BME280;45528;52.102;5.242;2023-05-14T02:15:15;101570.0;;;18.02;58.69
32452;BME280;45528;52.102;5.242;2023-05-14T02:16:51;101569.0;;;18.09;58.56
32452;BME280;45528;52.102;5.242;2023-05-14T02:18:27;101568.0;;;18.11;58.33
32452;BME280;45528;52.102;5.242;2023-05-14T02:20:04;101569.0;;;18.07;58.4
32452;BME280;45528;52.102;5.242;2023-05-14T02:23:18;101573.0;;;18.2;57.87
32452;BME280;45528;52.102;5.242;2023-05-14T02:24:54;101572.0;;;18.18;57.9
32452;BME280;45528;52.102;5.242;2023-05-14T02:26:30;101571.0;;;18.0;58.68
32452;BME280;45528;52.102;5.242;2023-05-14T02:29:43;101573.0;;;17.93;58.89
32452;BME280;45528;52.102;5.242;2023-05-14T02:31:19;101570.0;;;17.79;59.47
32452;BME280;45528;52.102;5.242;2023-05-14T02:32:56;101569.0;;;17.73;59.63
32452;BME280;45528;52.102;5.242;2023-05-14T02:36:09;101570.0;;;17.7;59.62
32452;BME280;45528;52.102;5.242;2023-05-14T02:37:46;101567.0;;;17.77;59.28
32452;BME280;45528;52.102;5.242;2023-05-14T02:39:22;101568.0;;;17.81;59.03
32452;BME280;45528;52.102;5.242;2023-05-14T02:40:58;101561.0;;;17.77;59.33
32452;BME280;45528;52.102;5.242;2023-05-14T02:44:11;101561.0;;;17.73;59.48
32452;BME280;45528;52.102;5.242;2023-05-14T02:45:47;101564.0;;;17.68;59.46
32452;BME280;45528;52.102;5.242;2023-05-14T02:47:23;101562.0;;;17.64;59.76
32452;BME280;45528;52.102;5.242;2023-05-14T02:50:36;101558.0;;;17.7;59.4
32452;BME280;45528;52.102;5.242;2023-05-14T02:52:12;101559.0;;;17.63;59.71
32452;BME280;45528;52.102;5.242;2023-05-14T02:53:49;101559.0;;;17.61;59.71
32452;BME280;45528;52.102;5.242;2023-05-14T02:57:01;101560.0;;;17.62;59.51
32452;BME280;45528;52.102;5.242;2023-05-14T02:58:37;101559.0;;;17.52;59.88
32452;BME280;45528;52.102;5.242;2023-05-14T03:00:13;101555.0;;;17.43;60.23
32452;BME280;45528;52.102;5.242;2023-05-14T03:01:50;101555.0;;;17.34;60.53
32452;BME280;45528;52.102;5.242;2023-05-14T03:05:05;101555.0;;;17.3;60.68
32452;BME280;45528;52.102;5.242;2023-05-14T03:06:41;101555.0;;;17.31;60.81
32452;BME280;45528;52.102;5.242;2023-05-14T03:08:17;101551.0;;;17.25;60.9
32452;BME280;45528;52.102;5.242;2023-05-14T03:11:29;101546.0;;;17.16;61.11
32452;BME280;45528;52.102;5.242;2023-05-14T03:13:05;101546.0;;;17.18;61.21
32452;BME280;45528;52.102;5.242;2023-05-14T03:14:41;101555.0;;;17.28;60.56
32452;BME280;45528;52.102;5.242;2023-05-14T03:17:55;101552.0;;;17.27;60.69
32452;BME280;45528;52.102;5.242;2023-05-14T03:19:31;101553.0;;;17.18;60.93
32452;BME280;45528;52.102;5.242;2023-05-14T03:21:07;101553.0;;;17.22;60.87
32452;BME280;45528;52.102;5.242;2023-05-14T03:22:44;101549.0;;;17.16;61.2
32452;BME280;45528;52.102;5.242;2023-05-14T03:25:57;101553.0;;;17.12;61.22
32452;BME280;45528;52.102;5.242;2023-05-14T03:27:34;101551.0;;;17.04;61.66
32452;BME280;45528;52.102;5.242;2023-05-14T03:29:11;101551.0;;;17.05;61.47
32452;BME280;45528;52.102;5.242;2023-05-14T03:32:23;101549.0;;;17.13;61.27
32452;BME280;45528;52.102;5.242;2023-05-14T03:33:59;101551.0;;;17.09;61.33
32452;BME280;45528;52.102;5.242;2023-05-14T03:35:35;101546.0;;;17.11;61.16
32452;BME280;45528;52.102;5.242;2023-05-14T03:38:48;101546.0;;;17.07;60.98
32452;BME280;45528;52.102;5.242;2023-05-14T03:40:24;101544.0;;;17.05;61.31
32452;BME280;45528;52.102;5.242;2023-05-14T03:42:00;101544.0;;;17.04;61.44
32452;BME280;45528;52.102;5.242;2023-05-14T03:45:12;101550.0;;;17.03;61.49
32452;BME280;45528;52.102;5.242;2023-05-14T03:46:48;101552.0;;;17.02;61.54
32452;BME280;45528;52.102;5.242;2023-05-14T03:48:25;101550.0;;;17.03;61.1
32452;BME280;45528;52.102;5.242;2023-05-14T03:50:01;101551.0;;;17.03;61.38
32452;BME280;45528;52.102;5.242;2023-05-14T03:53:15;101546.0;;;17.0;61.39
32452;BME280;45528;52.102;5.242;2023-05-14T03:54:51;101551.0;;;16.97;61.79
32452;BME280;45528;52.102;5.242;2023-05-14T03:56:27;101549.0;;;16.98;61.62
32452;BME280;45528;52.102;5.242;2023-05-14T03:59:39;101542.0;;;16.9;61.9
32452;BME280;45528;52.102;5.242;2023-05-14T04:01:16;101540.0;;;16.9;61.92
32452;BME280;45528;52.102;5.242;2023-05-14T04:02:52;101537.0;;;17.02;61.35
32452;BME280;45528;52.102;5.242;2023-05-14T04:06:04;101544.0;;;16.98;61.55
32452;BME280;45528;52.102;5.242;2023-05-14T04:07:40;101540.0;;;17.02;61.4
32452;BME280;45528;52.102;5.242;2023-05-14T04:09:16;101539.0;;;17.16;60.86
32452;BME280;45528;52.102;5.242;2023-05-14T04:10:52;101542.0;;;17.25;60.61
32452;BME280;45528;52.102;5.242;2023-05-14T04:14:05;101538.0;;;17.18;61.11
32452;BME280;45528;52.102;5.242;2023-05-14T04:15:41;101537.0;;;17.18;60.89
32452;BME280;45528;52.102;5.242;2023-05-14T04:17:18;101535.0;;;17.07;61.32
32452;BME280;45528;52.102;5.242;2023-05-14T04:20:30;101530.0;;;17.09;61.42
32452;BME280;45528;52.102;5.242;2023-05-14T04:22:06;101530.0;;;17.16;60.97
32452;BME280;45528;52.102;5.242;2023-05-14T04:23:43;101527.0;;;17.18;61.02
32452;BME280;45528;52.102;5.242;2023-05-14T04:26:55;101532.0;;;17.2;60.87
32452;BME280;45528;52.102;5.242;2023-05-14T04:28:31;101527.0;;;17.11;61.28
32452;BME280;45528;52.102;5.242;2023-05-14T04:30:08;101533.0;;;17.18;61.1
32452;BME280;45528;52.102;5.242;2023-05-14T04:33:21;101535.0;;;17.14;61.3
32452;BME280;45528;52.102;5.242;2023-05-14T04:34:57;101534.0;;;17.12;61.42
32452;BME280;45528;52.102;5.242;2023-05-14T04:36:33;101540.0;;;17.11;61.71
32452;BME280;45528;52.102;5.242;2023-05-14T04:38:09;101538.0;;;17.09;61.67
32452;BME280;45528;52.102;5.242;2023-05-14T04:41:21;101537.0;;;17.11;61.5
32452;BME280;45528;52.102;5.242;2023-05-14T04:42:57;101539.0;;;17.21;61.2
32452;BME280;45528;52.102;5.242;2023-05-14T04:44:34;101545.0;;;17.3;60.84
32452;BME280;45528;52.102;5.242;2023-05-14T04:47:47;101545.0;;;17.38;60.68
32452;BME280;45528;52.102;5.242;2023-05-14T04:49:23;101541.0;;;17.34;60.92
32452;BME280;45528;52.102;5.242;2023-05-14T04:51:00;101539.0;;;17.36;61.06
32452;BME280;45528;52.102;5.242;2023-05-14T04:54:13;101538.0;;;17.41;61.12
32452;BME280;45528;52.102;5.242;2023-05-14T04:55:49;101541.0;;;17.43;61.16
32452;BME280;45528;52.102;5.242;2023-05-14T04:57:25;101539.0;;;17.59;60.71
32452;BME280;45528;52.102;5.242;2023-05-14T04:59:01;101540.0;;;17.61;60.68
32452;BME280;45528;52.102;5.242;2023-05-14T05:02:15;101539.0;;;17.66;60.53
32452;BME280;45528;52.102;5.242;2023-05-14T05:03:51;101538.0;;;17.66;60.94
32452;BME280;45528;52.102;5.242;2023-05-14T05:05:27;101541.0;;;17.84;60.4
32452;BME280;45528;52.102;5.242;2023-05-14T05:08:40;101543.0;;;17.93;60.17
32452;BME280;45528;52.102;5.242;2023-05-14T05:10:16;101539.0;;;18.04;59.96
32452;BME280;45528;52.102;5.242;2023-05-14T05:11:53;101540.0;;;18.25;59.57
32452;BME280;45528;52.102;5.242;2023-05-14T05:15:07;101536.0;;;18.34;59.1
32452;BME280;45528;52.102;5.242;2023-05-14T05:16:44;101542.0;;;18.41;58.87
32452;BME280;45528;52.102;5.242;2023-05-14T05:18:20;101550.0;;;18.41;58.94
32452;BME280;45528;52.102;5.242;2023-05-14T05:19:56;101547.0;;;18.41;59.08
32452;BME280;45528;52.102;5.242;2023-05-14T05:23:09;101546.0;;;18.46;59.07
32452;BME280;45528;52.102;5.242;2023-05-14T05:24:46;101544.0;;;18.43;59.01
32452;BME280;45528;52.102;5.242;2023-05-14T05:26:23;101548.0;;;18.57;58.98
32452;BME280;45528;52.102;5.242;2023-05-14T05:29:35;101547.0;;;18.72;58.71
32452;BME280;45528;52.102;5.242;2023-05-14T05:31:11;101552.0;;;18.77;58.74
32452;BME280;45528;52.102;5.242;2023-05-14T05:32:47;101551.0;;;18.95;58.53
32452;BME280;45528;52.102;5.242;2023-05-14T05:36:00;101551.0;;;18.82;58.84
32452;BME280;45528;52.102;5.242;2023-05-14T05:37:36;101549.0;;;19.11;58.21
32452;BME280;45528;52.102;5.242;2023-05-14T05:39:12;101547.0;;;19.13;58.28
32452;BME280;45528;52.102;5.242;2023-05-14T05:42:24;101546.0;;;19.22;58.01
32452;BME280;45528;52.102;5.242;2023-05-14T05:44:00;101545.0;;;19.14;57.98
32452;BME280;45528;52.102;5.242;2023-05-14T05:45:37;101553.0;;;18.79;58.79
32452;BME280;45528;52.102;5.242;2023-05-14T05:47:13;101545.0;;;19.2;58.12
32452;BME280;45528;52.102;5.242;2023-05-14T05:50:25;101555.0;;;19.09;58.41
32452;BME280;45528;52.102;5.242;2023-05-14T05:52:01;101551.0;;;19.41;57.83
32452;BME280;45528;52.102;5.242;2023-05-14T05:53:38;101551.0;;;19.55;57.57
32452;BME280;45528;52.102;5.242;2023-05-14T05:56:51;101551.0;;;19.31;58.18
32452;BME280;45528;52.102;5.242;2023-05-14T05:58:28;101555.0;;;19.46;57.98
32452;BME280;45528;52.102;5.242;2023-05-14T06:00:05;101552.0;;;19.66;57.82
32452;BME280;45528;52.102;5.242;2023-05-14T06:03:18;101555.0;;;19.61;58.16
32452;BME280;45528;52.102;5.242;2023-05-14T06:04:54;101555.0;;;19.84;57.79
32452;BME280;45528;52.102;5.242;2023-05-14T06:06:31;101553.0;;;19.11;59.06
32452;BME280;45528;52.102;5.242;2023-05-14T06:08:07;101547.0;;;19.89;57.87
32452;BME280;45528;52.102;5.242;2023-05-14T06:11:19;101540.0;;;19.64;58.45
32452;BME280;45528;52.102;5.242;2023-05-14T06:12:55;101539.0;;;19.79;58.58
32452;BME280;45528;52.102;5.242;2023-05-14T06:14:31;101555.0;;;19.53;58.6
32452;BME280;45528;52.102;5.242;2023-05-14T06:17:45;101553.0;;;19.77;58.36
32452;BME280;45528;52.102;5.242;2023-05-14T06:19:21;101553.0;;;20.18;57.46
32452;BME280;45528;52.102;5.242;2023-05-14T06:20:58;101562.0;;;20.5;57.3
32452;BME280;45528;52.102;5.242;2023-05-14T06:24:10;101558.0;;;20.69;56.13
32452;BME280;45528;52.102;5.242;2023-05-14T06:25:48;101563.0;;;20.77;55.67
32452;BME280;45528;52.102;5.242;2023-05-14T06:27:25;101563.0;;;20.94;55.31
32452;BME280;45528;52.102;5.242;2023-05-14T06:29:01;101571.0;;;20.51;55.97
32452;BME280;45528;52.102;5.242;2023-05-14T06:32:13;101563.0;;;20.25;56.75
32452;BME280;45528;52.102;5.242;2023-05-14T06:33:49;101562.0;;;20.73;55.44
32452;BME280;45528;52.102;5.242;2023-05-14T06:35:25;101566.0;;;20.78;55.18
32452;BME280;45528;52.102;5.242;2023-05-14T06:38:38;101568.0;;;21.01;55.1
32452;BME280;45528;52.102;5.242;2023-05-14T06:40:14;101558.0;;;20.8;55.4
32452;BME280;45528;52.102;5.242;2023-05-14T06:41:50;101562.0;;;20.89;54.96
32452;BME280;45528;52.102;5.242;2023-05-14T06:45:03;101568.0;;;20.92;55.35
32452;BME280;45528;52.102;5.242;2023-05-14T06:46:39;101565.0;;;20.93;55.33
32452;BME280;45528;52.102;5.242;2023-05-14T06:48:16;101564.0;;;21.04;55.25
32452;BME280;45528;52.102;5.242;2023-05-14T06:49:53;101566.0;;;20.94;56.06
32452;BME280;45528;52.102;5.242;2023-05-14T06:53:05;101556.0;;;21.17;55.25
32452;BME280;45528;52.102;5.242;2023-05-14T06:54:41;101560.0;;;21.34;54.79
32452;BME280;45528;52.102;5.242;2023-05-14T06:56:17;101562.0;;;21.58;54.18
32452;BME280;45528;52.102;5.242;2023-05-14T06:59:30;101550.0;;;21.78;54.59
32452;BME280;45528;52.102;5.242;2023-05-14T07:01:06;101558.0;;;21.82;53.91
32452;BME280;45528;52.102;5.242;2023-05-14T07:02:42;101553.0;;;21.87;53.94
32452;BME280;45528;52.102;5.242;2023-05-14T07:05:56;101541.0;;;21.07;55.63
32452;BME280;45528;52.102;5.242;2023-05-14T07:07:32;101552.0;;;21.89;53.6
32452;BME280;45528;52.102;5.242;2023-05-14T07:09:08;101558.0;;;21.91;54.16
32452;BME280;45528;52.102;5.242;2023-05-14T07:12:21;101558.0;;;21.78;54.11
32452;BME280;45528;52.102;5.242;2023-05-14T07:13:57;101557.0;;;22.0;54.11
32452;BME280;45528;52.102;5.242;2023-05-14T07:15:33;101557.0;;;21.78;54.32
32452;BME280;45528;52.102;5.242;2023-05-14T07:17:10;101557.0;;;22.16;53.39
32452;BME280;45528;52.102;5.242;2023-05-14T07:20:22;101557.0;;;21.97;53.78
32452;BME280;45528;52.102;5.242;2023-05-14T07:21:58;101568.0;;;22.42;53.04
32452;BME280;45528;52.102;5.242;2023-05-14T07:23:34;101569.0;;;22.47;53.52
32452;BME280;45528;52.102;5.242;2023-05-14T07:26:47;101569.0;;;22.46;52.88
32452;BME280;45528;52.102;5.242;2023-05-14T07:28:23;101556.0;;;22.5;52.57
32452;BME280;45528;52.102;5.242;2023-05-14T07:30:00;101561.0;;;22.32;53.02
32452;BME280;45528;52.102;5.242;2023-05-14T07:33:12;101560.0;;;22.22;53.13
32452;BME280;45528;52.102;5.242;2023-05-14T07:34:48;101565.0;;;22.28;52.91
32452;BME280;45528;52.102;5.242;2023-05-14T07:36:24;101564.0;;;22.47;51.76
32452;BME280;45528;52.102;5.242;2023-05-14T07:38:01;101564.0;;;22.24;52.24
32452;BME280;45528;52.102;5.242;2023-05-14T07:41:14;101558.0;;;22.15;52.55
32452;BME280;45528;52.102;5.242;2023-05-14T07:42:51;101557.0;;;22.37;52.21
32452;BME280;45528;52.102;5.242;2023-05-14T07:44:27;101558.0;;;22.32;52.02
32452;BME280;45528;52.102;5.242;2023-05-14T07:47:40;101551.0;;;22.15;52.25
32452;BME280;45528;52.102;5.242;2023-05-14T07:49:17;101546.0;;;22.66;50.97
32452;BME280;45528;52.102;5.242;2023-05-14T07:50:53;101557.0;;;22.41;50.77
32452;BME280;45528;52.102;5.242;2023-05-14T07:54:06;101542.0;;;22.58;50.94
32452;BME280;45528;52.102;5.242;2023-05-14T07:55:43;101535.0;;;23.05;50.61
32452;BME280;45528;52.102;5.242;2023-05-14T07:57:19;101534.0;;;23.19;50.13
32452;BME280;45528;52.102;5.242;2023-05-14T07:58:56;101539.0;;;23.2;49.65
32452;BME280;45528;52.102;5.242;2023-05-14T08:02:09;101541.0;;;23.2;48.88
32452;BME280;45528;52.102;5.242;2023-05-14T08:03:45;101550.0;;;23.47;48.62
32452;BME280;45528;52.102;5.242;2023-05-14T08:05:21;101549.0;;;23.09;48.9
32452;BME280;45528;52.102;5.242;2023-05-14T08:08:33;101550.0;;;23.46;48.54
32452;BME280;45528;52.102;5.242;2023-05-14T08:10:10;101555.0;;;22.73;49.48
32452;BME280;45528;52.102;5.242;2023-05-14T08:11:46;101541.0;;;23.25;49.73
32452;BME280;45528;52.102;5.242;2023-05-14T08:14:58;101544.0;;;23.24;49.12
32452;BME280;45528;52.102;5.242;2023-05-14T08:16:34;101543.0;;;23.3;48.67
32452;BME280;45528;52.102;5.242;2023-05-14T08:18:10;101538.0;;;23.04;49.75
32452;BME280;45528;52.102;5.242;2023-05-14T08:21:22;101539.0;;;23.21;49.07
32452;BME280;45528;52.102;5.242;2023-05-14T08:22:59;101545.0;;;23.34;49.13
32452;BME280;45528;52.102;5.242;2023-05-14T08:24:35;101544.0;;;23.4;48.7
32452;BME280;45528;52.102;5.242;2023-05-14T08:26:11;101548.0;;;23.7;48.2
32452;BME280;45528;52.102;5.242;2023-05-14T08:29:23;101547.0;;;23.65;47.79
32452;BME280;45528;52.102;5.242;2023-05-14T08:30:59;101548.0;;;23.61;47.5
32452;BME280;45528;52.102;5.242;2023-05-14T08:32:36;101546.0;;;23.87;46.59
32452;BME280;45528;52.102;5.242;2023-05-14T08:35:49;101544.0;;;23.73;45.98
32452;BME280;45528;52.102;5.242;2023-05-14T08:37:27;101544.0;;;23.89;46.84
32452;BME280;45528;52.102;5.242;2023-05-14T08:39:03;101543.0;;;23.9;47.03
32452;BME280;45528;52.102;5.242;2023-05-14T08:42:18;101542.0;;;23.81;46.41
32452;BME280;45528;52.102;5.242;2023-05-14T08:44:01;101540.0;;;24.1;46.63
32452;BME280;45528;52.102;5.242;2023-05-14T08:45:45;101535.0;;;24.22;45.77
32452;BME280;45528;52.102;5.242;2023-05-14T08:47:24;101531.0;;;24.46;45.17
32452;BME280;45528;52.102;5.242;2023-05-14T08:50:55;101530.0;;;24.81;44.83
32452;BME280;45528;52.102;5.242;2023-05-14T08:52:32;101525.0;;;24.47;45.28
32452;BME280;45528;52.102;5.242;2023-05-14T08:54:09;101525.0;;;24.88;45.11
32452;BME280;45528;52.102;5.242;2023-05-14T08:55:49;101527.0;;;24.58;44.32
32452;BME280;45528;52.102;5.242;2023-05-14T08:59:05;101528.0;;;24.41;45.15
32452;BME280;45528;52.102;5.242;2023-05-14T09:00:42;101522.0;;;24.4;44.86
32452;BME280;45528;52.102;5.242;2023-05-14T09:02:19;101527.0;;;24.15;45.45
32452;BME280;45528;52.102;5.242;2023-05-14T09:03:59;101528.0;;;24.24;44.67
32452;BME280;45528;52.102;5.242;2023-05-14T09:07:13;101523.0;;;24.35;45.62
32452;BME280;45528;52.102;5.242;2023-05-14T09:08:50;101531.0;;;24.74;44.18
32452;BME280;45528;52.102;5.242;2023-05-14T09:10:27;101522.0;;;24.5;45.2
32452;BME280;45528;52.102;5.242;2023-05-14T09:13:41;101519.0;;;23.93;45.03
32452;BME280;45528;52.102;5.242;2023-05-14T09:15:17;101516.0;;;23.95;46.03
32452;BME280;45528;52.102;5.242;2023-05-14T09:16:54;101512.0;;;24.26;45.16
32452;BME280;45528;52.102;5.242;2023-05-14T09:18:30;101517.0;;;24.44;45.6
32452;BME280;45528;52.102;5.242;2023-05-14T09:21:46;101510.0;;;24.27;46.16
32452;BME280;45528;52.102;5.242;2023-05-14T09:23:24;101508.0;;;24.48;45.56
32452;BME280;45528;52.102;5.242;2023-05-14T09:25:02;101514.0;;;24.67;44.97
32452;BME280;45528;52.102;5.242;2023-05-14T09:28:17;101514.0;;;24.66;44.32
32452;BME280;45528;52.102;5.242;2023-05-14T09:29:53;101511.0;;;24.87;44.42
32452;BME280;45528;52.102;5.242;2023-05-14T09:31:31;101512.0;;;24.69;43.77
32452;BME280;45528;52.102;5.242;2023-05-14T09:33:09;101506.0;;;25.13;43.99
32452;BME280;45528;52.102;5.242;2023-05-14T09:36:22;101507.0;;;25.03;43.77
32452;BME280;45528;52.102;5.242;2023-05-14T09:37:58;101503.0;;;25.42;43.03
32452;BME280;45528;52.102;5.242;2023-05-14T09:39:36;101505.0;;;25.7;42.92
32452;BME280;45528;52.102;5.242;2023-05-14T09:42:49;101502.0;;;25.69;42.13
32452;BME280;45528;52.102;5.242;2023-05-14T09:44:25;101496.0;;;25.2;43.73
32452;BME280;45528;52.102;5.242;2023-05-14T09:46:03;101494.0;;;25.69;42.81
32452;BME280;45528;52.102;5.242;2023-05-14T09:49:18;101499.0;;;25.6;42.42
32452;BME280;45528;52.102;5.242;2023-05-14T09:50:54;101496.0;;;25.76;42.96
32452;BME280;45528;52.102;5.242;2023-05-14T09:52:31;101496.0;;;26.11;41.3
32452;BME280;45528;52.102;5.242;2023-05-14T09:54:08;101492.0;;;25.85;41.2
32452;BME280;45528;52.102;5.242;2023-05-14T09:57:22;101487.0;;;26.0;41.24
32452;BME280;45528;52.102;5.242;2023-05-14T09:58:59;101487.0;;;26.13;40.82
32452;BME280;45528;52.102;5.242;2023-05-14T10:00:36;101490.0;;;26.06;41.28
32452;BME280;45528;52.102;5.242;2023-05-14T10:03:58;101490.0;;;25.81;41.26
32452;BME280;45528;52.102;5.242;2023-05-14T10:05:39;101496.0;;;25.83;41.01
32452;BME280;45528;52.102;5.242;2023-05-14T10:07:21;101492.0;;;25.82;41.76
32452;BME280;45528;52.102;5.242;2023-05-14T10:09:02;101494.0;;;26.14;42.58
32452;BME280;45528;52.102;5.242;2023-05-14T10:12:19;101491.0;;;26.19;42.09
32452;BME280;45528;52.102;5.242;2023-05-14T10:14:02;101492.0;;;26.01;41.13
32452;BME280;45528;52.102;5.242;2023-05-14T10:15:46;101484.0;;;26.27;41.7
32452;BME280;45528;52.102;5.242;2023-05-14T10:17:30;101481.0;;;26.44;40.68
32452;BME280;45528;52.102;5.242;2023-05-14T10:19:09;101472.0;;;26.51;40.64
32452;BME280;45528;52.102;5.242;2023-05-14T10:22:40;101467.0;;;26.64;39.99
32452;BME280;45528;52.102;5.242;2023-05-14T10:24:18;101476.0;;;26.94;39.96
32452;BME280;45528;52.102;5.242;2023-05-14T10:25:55;101477.0;;;26.49;41.03
32452;BME280;45528;52.102;5.242;2023-05-14T10:27:32;101468.0;;;26.66;40.74
32452;BME280;45528;52.102;5.242;2023-05-14T10:30:47;101472.0;;;26.48;40.96
32452;BME280;45528;52.102;5.242;2023-05-14T10:32:24;101475.0;;;26.66;40.92
32452;BME280;45528;52.102;5.242;2023-05-14T10:34:00;101474.0;;;27.05;39.39
32452;BME280;45528;52.102;5.242;2023-05-14T10:37:45;101476.0;;;27.06;38.42
32452;BME280;45528;52.102;5.242;2023-05-14T10:39:22;101470.0;;;26.82;38.96
32452;BME280;45528;52.102;5.242;2023-05-14T10:41:15;101471.0;;;26.99;39.44
32452;BME280;45528;52.102;5.242;2023-05-14T10:42:52;101463.0;;;27.14;39.67
32452;BME280;45528;52.102;5.242;2023-05-14T10:44:31;101465.0;;;27.12;40.62
32452;BME280;45528;52.102;5.242;2023-05-14T10:47:49;101464.0;;;27.43;39.44
32452;BME280;45528;52.102;5.242;2023-05-14T10:49:26;101465.0;;;27.53;39.56
32452;BME280;45528;52.102;5.242;2023-05-14T10:51:02;101456.0;;;27.38;38.97
32452;BME280;45528;52.102;5.242;2023-05-14T10:52:40;101455.0;;;27.4;39.21
32452;BME280;45528;52.102;5.242;2023-05-14T10:55:53;101452.0;;;27.67;39.28
32452;BME280;45528;52.102;5.242;2023-05-14T10:57:31;101453.0;;;27.85;39.03
32452;BME280;45528;52.102;5.242;2023-05-14T10:59:09;101448.0;;;27.79;38.67
32452;BME280;45528;52.102;5.242;2023-05-14T11:02:25;101451.0;;;27.91;38.28
32452;BME280;45528;52.102;5.242;2023-05-14T11:04:01;101446.0;;;27.75;38.07
32452;BME280;45528;52.102;5.242;2023-05-14T11:05:39;101441.0;;;26.99;39.67
32452;BME280;45528;52.102;5.242;2023-05-14T11:07:16;101447.0;;;27.77;39.89